createdAt,value
2017-12-11T00:00:55.264Z,3.00
2017-12-11T00:03:29.864Z,3.25
2017-12-11T00:06:03.607Z,2.65
2017-12-11T00:08:37.476Z,3.50
2017-12-11T00:11:11.153Z,2.90
2017-12-11T00:13:48.057Z,3.10
2017-12-11T00:25:39.129Z,4.15
2017-12-11T00:28:13.531Z,3.50
2017-12-11T00:30:47.793Z,3.10
2017-12-11T00:33:21.590Z,4.12
2017-12-11T00:35:56.816Z,3.85
2017-12-11T00:38:31.251Z,5.35
2017-12-11T00:41:05.698Z,5.30
2017-12-11T00:43:40.269Z,5.50
2017-12-11T00:46:23.040Z,5.40
2017-12-11T00:48:56.795Z,6.20
2017-12-11T00:51:30.574Z,5.20
2017-12-11T00:54:04.400Z,6.82
2017-12-11T00:56:38.905Z,6.20
2017-12-11T00:59:13.041Z,6.40
2017-12-11T01:01:46.789Z,7.60
2017-12-11T01:04:21.261Z,7.53
2017-12-11T01:06:55.967Z,7.80
2017-12-11T01:09:30.606Z,7.55
2017-12-11T01:12:04.389Z,9.68
2017-12-11T01:14:39.071Z,9.45
2017-12-11T01:17:16.579Z,9.38
2017-12-11T01:19:50.377Z,9.68
2017-12-11T01:22:24.026Z,9.52
2017-12-11T01:24:58.575Z,10.98
2017-12-11T01:27:33.356Z,10.20
2017-12-11T01:30:08.107Z,12.75
2017-12-11T01:32:41.710Z,12.60
2017-12-11T01:35:15.693Z,9.93
2017-12-11T01:37:49.554Z,10.82
2017-12-11T01:40:24.696Z,11.38
2017-12-11T01:42:58.493Z,12.15
2017-12-11T01:45:32.506Z,12.57
2017-12-11T01:48:06.257Z,11.85
2017-12-11T01:50:40.063Z,8.73
2017-12-11T01:53:13.767Z,12.57
2017-12-11T01:55:47.572Z,10.57
2017-12-11T01:58:21.288Z,11.07
2017-12-11T02:00:55.318Z,11.93
2017-12-11T02:03:29.738Z,15.25
2017-12-11T02:06:04.555Z,13.07
2017-12-11T02:08:38.354Z,13.70
2017-12-11T02:11:12.065Z,12.65
2017-12-11T02:13:45.922Z,12.05
2017-12-11T02:16:19.739Z,13.35
2017-12-11T02:18:54.881Z,11.93
2017-12-11T02:21:28.460Z,11.50
2017-12-11T02:24:02.309Z,11.00
2017-12-11T02:26:36.010Z,12.40
2017-12-11T02:29:09.888Z,13.10
2017-12-11T02:31:45.078Z,13.18
2017-12-11T02:34:19.293Z,10.50
2017-12-11T02:36:53.026Z,15.90
2017-12-11T02:39:26.707Z,15.02
2017-12-11T02:42:00.616Z,14.90
2017-12-11T02:44:34.317Z,15.05
2017-12-11T02:47:09.759Z,12.32
2017-12-11T02:49:43.573Z,15.18
2017-12-11T02:52:17.404Z,15.60
2017-12-11T02:54:53.117Z,13.77
2017-12-11T02:57:29.603Z,16.23
2017-12-11T03:00:04.168Z,15.40
2017-12-11T03:02:38.630Z,16.75
2017-12-11T03:05:13.513Z,17.48
2017-12-11T03:07:47.275Z,15.32
2017-12-11T03:10:23.482Z,12.82
2017-12-11T03:12:57.279Z,16.85
2017-12-11T03:15:31.049Z,15.15
2017-12-11T03:18:05.229Z,18.92
2017-12-11T03:20:40.743Z,16.67
2017-12-11T03:23:18.854Z,14.23
2017-12-11T03:25:53.211Z,16.00
2017-12-11T03:28:27.765Z,17.95
2017-12-11T03:31:01.530Z,20.45
2017-12-11T03:33:35.211Z,18.42
2017-12-11T03:36:09.031Z,16.62
2017-12-11T03:38:42.826Z,17.05
2017-12-11T03:41:17.318Z,16.60
2017-12-11T03:43:50.950Z,14.82
2017-12-11T03:46:25.567Z,17.45
2017-12-11T03:48:59.254Z,17.02
2017-12-11T03:51:33.005Z,18.37
2017-12-11T03:54:08.077Z,16.08
2017-12-11T03:56:41.786Z,13.40
2017-12-11T03:59:15.572Z,19.10
2017-12-11T04:01:49.383Z,14.95
2017-12-11T04:04:23.160Z,15.13
2017-12-11T04:06:56.957Z,15.68
2017-12-11T04:09:30.558Z,15.27
2017-12-11T04:12:04.353Z,15.27
2017-12-11T04:14:38.105Z,13.25
2017-12-11T04:17:11.682Z,11.57
2017-12-11T04:19:46.228Z,13.05
2017-12-11T04:22:20.061Z,13.45
2017-12-11T04:24:54.579Z,13.68
2017-12-11T04:27:30.496Z,13.13
2017-12-11T04:30:05.014Z,12.45
2017-12-11T04:35:28.459Z,13.62
2017-12-11T04:38:03.381Z,14.00
2017-12-11T04:40:37.286Z,11.45
2017-12-11T04:43:11.038Z,10.75
2017-12-11T04:45:44.756Z,12.20
2017-12-11T04:48:18.573Z,13.98
2017-12-11T04:50:53.028Z,12.55
2017-12-11T04:53:26.668Z,13.15
2017-12-11T04:56:00.397Z,14.63
2017-12-11T04:58:34.000Z,14.38
2017-12-11T05:01:10.614Z,13.68
2017-12-11T05:03:45.072Z,13.93
2017-12-11T05:06:19.078Z,13.60
2017-12-11T05:08:53.701Z,14.50
2017-12-11T05:11:27.506Z,14.15
2017-12-11T05:14:01.955Z,13.90
2017-12-11T05:16:36.370Z,14.20
2017-12-11T05:19:10.102Z,15.38
2017-12-11T05:21:43.853Z,15.00
2017-12-11T05:24:17.598Z,15.57
2017-12-11T05:26:51.325Z,14.52
2017-12-11T05:29:25.868Z,15.80
2017-12-11T05:31:59.557Z,15.55
2017-12-11T05:34:33.326Z,16.55
2017-12-11T05:37:07.132Z,14.20
2017-12-11T05:39:40.925Z,16.40
2017-12-11T05:42:14.629Z,15.30
2017-12-11T05:44:48.420Z,13.57
2017-12-11T05:47:22.145Z,13.88
2017-12-11T05:49:56.582Z,15.80
2017-12-11T05:52:30.845Z,14.43
2017-12-11T05:55:05.924Z,15.40
2017-12-11T05:57:41.274Z,13.62
2017-12-11T06:00:15.976Z,12.40
2017-12-11T06:02:54.749Z,13.20
2017-12-11T06:05:30.046Z,15.38
2017-12-11T06:08:08.102Z,12.65
2017-12-11T06:10:43.433Z,14.63
2017-12-11T06:13:17.090Z,14.68
2017-12-11T06:15:51.531Z,15.23
2017-12-11T06:18:25.360Z,14.20
2017-12-11T06:20:59.104Z,14.68
2017-12-11T06:23:32.890Z,16.10
2017-12-11T06:26:08.703Z,16.27
2017-12-11T06:28:43.421Z,15.02
2017-12-11T06:31:17.034Z,15.13
2017-12-11T06:33:51.996Z,15.75
2017-12-11T06:36:25.792Z,16.20
2017-12-11T06:39:00.284Z,16.60
2017-12-11T06:41:33.923Z,16.42
2017-12-11T06:44:08.248Z,16.92
2017-12-11T06:46:43.226Z,19.87
2017-12-11T06:49:16.796Z,19.50
2017-12-11T06:51:51.240Z,18.20
2017-12-11T06:54:24.960Z,18.08
2017-12-11T06:56:58.707Z,19.30
2017-12-11T06:59:32.357Z,17.80
2017-12-11T07:02:06.121Z,19.33
2017-12-11T07:04:40.628Z,19.58
2017-12-11T07:07:14.439Z,18.35
2017-12-11T07:09:49.448Z,18.83
2017-12-11T07:12:23.313Z,18.27
2017-12-11T07:14:57.241Z,18.67
2017-12-11T07:17:32.044Z,18.70
2017-12-11T07:20:05.657Z,19.58
2017-12-11T07:22:40.205Z,20.25
2017-12-11T07:25:14.018Z,19.45
2017-12-11T07:27:47.809Z,21.02
2017-12-11T07:30:23.133Z,18.73
2017-12-11T07:32:57.692Z,18.60
2017-12-11T07:35:33.858Z,20.62
2017-12-11T07:38:07.638Z,21.40
2017-12-11T07:40:42.328Z,20.33
2017-12-11T07:43:17.017Z,20.88
2017-12-11T07:45:51.450Z,21.40
2017-12-11T07:48:25.476Z,21.33
2017-12-11T07:50:59.500Z,20.30
2017-12-11T07:53:34.129Z,21.45
2017-12-11T07:56:08.836Z,24.17
2017-12-11T07:58:42.529Z,19.70
2017-12-11T08:01:17.318Z,19.95
2017-12-11T08:03:51.984Z,20.00
2017-12-11T08:06:25.567Z,23.12
2017-12-11T08:09:00.224Z,20.33
2017-12-11T08:11:33.860Z,19.30
2017-12-11T08:14:08.038Z,20.27
2017-12-11T08:16:42.713Z,20.70
2017-12-11T08:19:16.559Z,17.75
2017-12-11T08:21:50.450Z,18.90
2017-12-11T08:24:25.937Z,17.90
2017-12-11T08:27:02.237Z,18.60
2017-12-11T08:29:42.770Z,18.23
2017-12-11T08:32:19.145Z,18.70
2017-12-11T08:34:54.154Z,18.95
2017-12-11T08:37:31.012Z,17.35
2017-12-11T08:40:04.791Z,16.33
2017-12-11T08:42:39.289Z,14.90
2017-12-11T08:45:14.351Z,17.15
2017-12-11T08:47:48.387Z,18.20
2017-12-11T08:50:22.114Z,18.73
2017-12-11T08:52:58.773Z,19.80
2017-12-11T08:55:34.525Z,19.92
2017-12-11T08:58:10.768Z,20.10
2017-12-11T09:00:46.030Z,17.48
2017-12-11T09:03:24.993Z,19.60
2017-12-11T09:05:59.516Z,17.90
2017-12-11T09:08:34.960Z,18.12
2017-12-11T09:11:10.305Z,20.30
2017-12-11T09:13:45.229Z,18.92
2017-12-11T09:16:18.909Z,17.65
2017-12-11T09:18:54.126Z,18.30
2017-12-11T09:21:28.824Z,18.65
2017-12-11T09:24:03.592Z,19.30
2017-12-11T09:26:38.560Z,19.75
2017-12-11T09:29:14.037Z,18.73
2017-12-11T09:31:47.670Z,19.15
2017-12-11T09:34:23.601Z,17.90
2017-12-11T09:37:00.123Z,19.02
2017-12-11T09:39:36.538Z,20.02
2017-12-11T09:42:16.447Z,20.30
2017-12-11T09:44:51.115Z,21.12
2017-12-11T09:47:24.687Z,19.23
2017-12-11T09:49:58.504Z,19.67
2017-12-11T09:52:33.307Z,18.70
2017-12-11T09:55:07.778Z,19.23
2017-12-11T09:57:42.787Z,18.08
2017-12-11T10:00:16.713Z,20.33
2017-12-11T10:02:51.898Z,16.83
2017-12-11T10:05:26.539Z,17.40
2017-12-11T10:08:00.165Z,17.40
2017-12-11T10:10:35.158Z,17.17
2017-12-11T10:13:08.920Z,18.62
2017-12-11T10:15:43.320Z,17.90
2017-12-11T10:18:17.066Z,17.02
2017-12-11T10:20:50.766Z,17.73
2017-12-11T10:23:25.433Z,15.52
2017-12-11T10:25:59.056Z,17.87
2017-12-11T10:28:34.851Z,15.75
2017-12-11T10:31:08.685Z,16.45
2017-12-11T10:33:42.587Z,15.50
2017-12-11T10:36:17.275Z,16.75
2017-12-11T10:38:51.740Z,16.90
2017-12-11T10:41:25.911Z,17.87
2017-12-11T10:43:59.549Z,18.95
2017-12-11T10:46:33.319Z,17.60
2017-12-11T10:49:08.038Z,16.02
2017-12-11T10:51:41.774Z,19.05
2017-12-11T10:54:15.718Z,15.85
2017-12-11T10:56:50.402Z,16.80
2017-12-11T10:59:24.123Z,15.43
2017-12-11T11:01:58.772Z,16.35
2017-12-11T11:04:32.928Z,16.62
2017-12-11T11:07:06.548Z,17.52
2017-12-11T11:09:41.423Z,16.62
2017-12-11T11:12:15.079Z,19.80
2017-12-11T11:14:49.551Z,19.15
2017-12-11T11:17:23.366Z,17.60
2017-12-11T11:19:57.078Z,18.42
2017-12-11T11:22:33.582Z,17.52
2017-12-11T11:25:08.067Z,18.75
2017-12-11T11:27:42.794Z,19.70
2017-12-11T11:30:17.606Z,18.33
2017-12-11T11:32:54.194Z,19.25
2017-12-11T11:35:28.513Z,18.95
2017-12-11T11:38:03.083Z,20.40
2017-12-11T11:40:38.337Z,18.87
2017-12-11T11:43:14.374Z,18.80
2017-12-11T11:45:48.966Z,20.10
2017-12-11T11:48:26.808Z,19.70
2017-12-11T11:51:04.820Z,20.50
2017-12-11T11:53:42.375Z,20.83
2017-12-11T11:56:20.740Z,20.95
2017-12-11T11:58:56.008Z,21.45
2017-12-11T12:01:31.439Z,20.67
2017-12-11T12:04:05.361Z,21.77
2017-12-11T12:06:43.226Z,20.10
2017-12-11T12:09:21.095Z,22.35
2017-12-11T12:11:57.442Z,20.92
2017-12-11T12:17:14.076Z,21.40
2017-12-11T12:19:49.042Z,20.42
2017-12-11T12:22:24.276Z,21.45
2017-12-11T12:25:00.125Z,22.65
2017-12-11T12:27:34.838Z,19.08
2017-12-11T12:30:09.877Z,20.37
2017-12-11T12:32:44.017Z,19.95
2017-12-11T12:35:19.659Z,22.13
2017-12-11T12:37:55.065Z,22.37
2017-12-11T12:40:29.895Z,22.75
2017-12-11T12:43:04.334Z,21.12
2017-12-11T12:45:38.088Z,22.27
2017-12-11T12:48:11.952Z,24.55
2017-12-11T12:50:46.742Z,24.80
2017-12-11T12:53:20.484Z,22.37
2017-12-11T12:55:54.221Z,23.08
2017-12-11T12:58:27.958Z,23.90
2017-12-11T13:01:01.719Z,24.45
2017-12-11T13:03:38.209Z,23.65
2017-12-11T13:06:18.698Z,24.08
2017-12-11T13:08:53.196Z,26.48
2017-12-11T13:11:26.985Z,23.75
2017-12-11T13:14:00.759Z,22.62
2017-12-11T13:16:35.342Z,24.75
2017-12-11T13:19:08.993Z,23.85
2017-12-11T13:21:43.251Z,22.77
2017-12-11T13:24:18.722Z,22.95
2017-12-11T13:26:52.290Z,22.37
2017-12-11T13:29:28.940Z,21.12
2017-12-11T13:32:03.489Z,21.87
2017-12-11T13:34:37.353Z,22.70
2017-12-11T13:37:13.996Z,22.50
2017-12-11T13:39:50.621Z,23.80
2017-12-11T13:42:25.201Z,23.87
2017-12-11T13:44:59.001Z,22.67
2017-12-11T13:47:33.385Z,20.80
2017-12-11T13:50:08.008Z,21.00
2017-12-11T13:52:42.654Z,21.83
2017-12-11T13:55:16.399Z,18.83
2017-12-11T13:57:50.897Z,18.92
2017-12-11T14:00:24.507Z,19.35
2017-12-11T14:02:58.294Z,18.95
2017-12-11T14:05:31.931Z,18.20
2017-12-11T14:08:05.676Z,20.37
2017-12-11T14:10:39.470Z,19.17
2017-12-11T14:13:13.248Z,19.17
2017-12-11T14:15:47.755Z,18.83
2017-12-11T14:18:21.442Z,18.25
2017-12-11T14:20:55.759Z,19.35
2017-12-11T14:23:29.444Z,22.55
2017-12-11T14:26:05.317Z,18.98
2017-12-11T14:28:39.562Z,19.15
2017-12-11T14:31:14.540Z,18.95
2017-12-11T14:33:48.233Z,18.90
2017-12-11T14:36:22.771Z,18.42
2017-12-11T14:38:57.227Z,18.00
2017-12-11T14:41:31.604Z,18.42
2017-12-11T14:44:06.290Z,19.10
2017-12-11T14:46:39.958Z,19.35
2017-12-11T14:49:13.634Z,19.30
2017-12-11T14:51:48.162Z,18.80
2017-12-11T14:54:21.820Z,20.90
2017-12-11T14:56:56.287Z,20.33
2017-12-11T14:59:31.270Z,18.55
2017-12-11T15:02:06.395Z,18.60
2017-12-11T15:04:40.572Z,21.00
2017-12-11T15:07:15.653Z,20.05
2017-12-11T15:09:49.232Z,18.67
2017-12-11T15:12:26.777Z,21.10
2017-12-11T15:15:00.947Z,21.42
2017-12-11T15:17:34.622Z,18.30
2017-12-11T15:20:09.229Z,20.65
2017-12-11T15:22:42.823Z,20.40
2017-12-11T15:25:17.411Z,19.08
2017-12-11T15:27:51.132Z,21.60
2017-12-11T15:30:25.584Z,22.15
2017-12-11T15:33:02.405Z,21.12
2017-12-11T15:35:37.737Z,20.75
2017-12-11T15:38:12.916Z,21.98
2017-12-11T15:40:46.717Z,21.50
2017-12-11T15:43:21.378Z,20.48
2017-12-11T15:45:56.084Z,21.25
2017-12-11T15:48:30.657Z,21.02
2017-12-11T15:51:05.181Z,21.48
2017-12-11T15:53:39.673Z,22.45
2017-12-11T15:56:13.330Z,23.48
2017-12-11T15:58:47.424Z,24.95
2017-12-11T16:01:21.128Z,23.02
2017-12-11T16:03:57.269Z,23.12
2017-12-11T16:06:32.980Z,21.77
2017-12-11T16:09:06.621Z,23.85
2017-12-11T16:11:40.351Z,22.13
2017-12-11T16:14:15.313Z,23.20
2017-12-11T16:16:50.626Z,23.85
2017-12-11T16:19:26.003Z,26.02
2017-12-11T16:22:00.753Z,24.92
2017-12-11T16:24:34.365Z,24.63
2017-12-11T16:27:08.423Z,25.52
2017-12-11T16:29:43.063Z,25.85
2017-12-11T16:32:18.489Z,24.67
2017-12-11T16:34:52.859Z,25.02
2017-12-11T16:37:28.701Z,28.38
2017-12-11T16:40:03.460Z,27.23
2017-12-11T16:42:37.431Z,27.50
2017-12-11T16:45:11.841Z,26.85
2017-12-11T16:47:48.808Z,25.58
2017-12-11T16:50:23.635Z,25.70
2017-12-11T16:52:58.984Z,26.67
2017-12-11T16:55:33.567Z,26.00
2017-12-11T16:58:07.544Z,25.48
2017-12-11T17:00:41.116Z,25.65
2017-12-11T17:03:14.908Z,26.95
2017-12-11T17:05:48.710Z,27.77
2017-12-11T17:08:22.446Z,27.55
2017-12-11T17:10:56.160Z,26.65
2017-12-11T17:13:30.969Z,28.95
2017-12-11T17:16:06.525Z,28.27
2017-12-11T17:18:41.206Z,28.73
2017-12-11T17:21:14.816Z,28.35
2017-12-11T17:23:48.611Z,29.27
2017-12-11T17:26:23.308Z,27.25
2017-12-11T17:28:57.773Z,29.25
2017-12-11T17:31:31.354Z,27.65
2017-12-11T17:34:05.884Z,29.48
2017-12-11T17:36:40.106Z,28.83
2017-12-11T17:39:14.525Z,27.75
2017-12-11T17:41:48.319Z,29.80
2017-12-11T17:44:22.022Z,29.87
2017-12-11T17:46:55.837Z,27.60
2017-12-11T17:49:29.558Z,26.67
2017-12-11T17:52:04.266Z,26.85
2017-12-11T17:54:37.859Z,26.83
2017-12-11T17:57:14.567Z,28.00
2017-12-11T17:59:51.600Z,30.40
2017-12-11T18:02:27.307Z,27.35
2017-12-11T18:05:04.722Z,27.92
2017-12-11T18:07:40.052Z,30.62
2017-12-11T18:10:13.778Z,28.45
2017-12-11T18:12:48.245Z,30.00
2017-12-11T18:15:22.089Z,30.50
2017-12-11T18:17:56.592Z,32.13
2017-12-11T18:20:30.999Z,28.87
2017-12-11T18:23:05.725Z,29.02
2017-12-11T18:25:39.473Z,29.37
2017-12-11T18:28:14.377Z,31.37
2017-12-11T18:30:49.781Z,31.33
2017-12-11T18:33:24.357Z,28.70
2017-12-11T18:35:58.927Z,28.95
2017-12-11T18:38:33.680Z,30.77
2017-12-11T18:41:07.413Z,31.08
2017-12-11T18:43:41.929Z,30.33
2017-12-11T18:46:15.712Z,28.38
2017-12-11T18:48:51.183Z,30.42
2017-12-11T18:51:24.753Z,28.98
2017-12-11T18:53:59.501Z,29.83
2017-12-11T18:56:33.489Z,30.75
2017-12-11T18:59:07.509Z,31.52
2017-12-11T19:01:41.409Z,31.48
2017-12-11T19:04:15.799Z,29.42
2017-12-11T19:06:49.694Z,30.48
2017-12-11T19:09:23.356Z,28.73
2017-12-11T19:11:57.103Z,30.75
2017-12-11T19:14:32.343Z,28.77
2017-12-11T19:17:06.427Z,27.90
2017-12-11T19:19:40.401Z,29.02
2017-12-11T19:22:14.253Z,30.00
2017-12-11T19:24:48.751Z,31.73
2017-12-11T19:27:23.209Z,28.80
2017-12-11T19:29:57.765Z,30.75
2017-12-11T19:32:31.892Z,32.45
2017-12-11T19:35:06.411Z,28.75
2017-12-11T19:37:41.892Z,28.87
2017-12-11T19:40:20.324Z,28.83
2017-12-11T19:42:56.522Z,31.20
2017-12-11T19:45:32.253Z,31.23
2017-12-11T19:48:06.185Z,30.88
2017-12-11T19:50:40.418Z,32.28
2017-12-11T19:53:14.339Z,29.00
2017-12-11T19:55:49.852Z,29.67
2017-12-11T19:58:25.065Z,31.50
2017-12-11T20:00:59.838Z,30.55
2017-12-11T20:03:34.474Z,30.25
2017-12-11T20:06:12.253Z,33.00
2017-12-11T20:08:47.496Z,28.25
2017-12-11T20:11:21.094Z,30.40
2017-12-11T20:13:55.682Z,31.00
2017-12-11T20:16:29.496Z,28.87
2017-12-11T20:19:03.427Z,30.23
2017-12-11T20:21:37.240Z,29.00
2017-12-11T20:24:11.701Z,30.02
2017-12-11T20:26:46.288Z,28.92
2017-12-11T20:29:20.454Z,30.67
2017-12-11T20:31:54.252Z,30.35
2017-12-11T20:34:27.984Z,29.27
2017-12-11T20:37:01.762Z,30.48
2017-12-11T20:39:36.240Z,26.27
2017-12-11T20:42:10.112Z,28.87
2017-12-11T20:44:43.812Z,28.25
2017-12-11T20:47:17.553Z,25.95
2017-12-11T20:49:52.738Z,29.10
2017-12-11T20:52:27.605Z,26.98
2017-12-11T20:55:01.521Z,29.05
2017-12-11T20:57:35.574Z,26.83
2017-12-11T21:00:10.119Z,25.73
2017-12-11T21:02:43.997Z,26.55
2017-12-11T21:05:17.603Z,26.30
2017-12-11T21:07:51.366Z,29.35
2017-12-11T21:10:26.265Z,24.67
2017-12-11T21:13:00.003Z,25.10
2017-12-11T21:15:34.886Z,25.12
2017-12-11T21:18:08.489Z,28.62
2017-12-11T21:20:42.935Z,27.30
2017-12-11T21:23:16.695Z,25.20
2017-12-11T21:25:50.404Z,26.10
2017-12-11T21:28:24.213Z,24.95
2017-12-11T21:30:58.964Z,22.48
2017-12-11T21:33:33.181Z,22.08
2017-12-11T21:36:08.669Z,18.85
2017-12-11T21:38:44.147Z,23.48
2017-12-11T21:41:19.868Z,19.65
2017-12-11T21:43:56.107Z,17.12
2017-12-11T21:46:30.805Z,18.33
2017-12-11T21:49:06.197Z,15.52
2017-12-11T21:51:41.069Z,15.02
2017-12-11T21:54:14.874Z,15.13
2017-12-11T21:56:48.716Z,15.90
2017-12-11T21:59:22.387Z,12.52
2017-12-11T22:01:56.528Z,9.75
2017-12-11T22:04:31.162Z,11.43
2017-12-11T22:07:05.682Z,10.10
2017-12-11T22:09:44.237Z,8.88
2017-12-11T22:12:24.907Z,7.93
2017-12-11T22:15:03.913Z,6.90
2017-12-11T22:20:18.732Z,4.30
2017-12-11T22:22:53.166Z,4.90
2017-12-11T22:25:28.820Z,4.60
2017-12-11T22:28:06.908Z,4.53
2017-12-11T22:30:42.420Z,4.15
2017-12-11T22:35:57.781Z,4.82
2017-12-11T22:41:13.071Z,4.00
2017-12-11T22:43:50.497Z,4.45
2017-12-11T22:46:24.481Z,3.12
2017-12-11T22:48:58.118Z,3.05
2017-12-11T22:51:31.782Z,3.83
2017-12-11T22:54:06.440Z,3.10
2017-12-11T22:56:41.071Z,3.55
2017-12-11T22:59:15.551Z,3.28
2017-12-11T23:01:49.384Z,3.47
2017-12-11T23:04:23.162Z,3.55
2017-12-11T23:06:57.641Z,2.70
2017-12-11T23:09:31.406Z,2.58
2017-12-11T23:12:05.413Z,2.78
2017-12-11T23:14:40.035Z,2.50
2017-12-11T23:17:14.446Z,2.50
2017-12-11T23:19:48.088Z,2.55
2017-12-11T23:22:21.844Z,2.40
2017-12-11T23:24:57.249Z,2.45
2017-12-11T23:27:31.577Z,1.95
2017-12-11T23:30:05.469Z,2.45
2017-12-11T23:32:39.851Z,2.40
2017-12-11T23:35:13.536Z,2.37
2017-12-11T23:37:47.247Z,3.28
2017-12-11T23:40:21.063Z,1.60
2017-12-11T23:42:55.924Z,2.00
2017-12-11T23:45:29.691Z,2.33
2017-12-11T23:48:04.290Z,2.25
2017-12-11T23:50:38.942Z,2.00
2017-12-11T23:53:12.528Z,2.47
2017-12-11T23:55:46.912Z,1.80
2017-12-11T23:58:20.693Z,1.87
